หน้าหลัก
METAR-TAF:

METAR-TAF

ท่าอากาศยาน :

ท่าอากาศยานนานาชาติไคโร

ไคโร, อียิปต์

ละติจูด: 30-08N, ลองจิจูด: 031-24E, ความสูง: 64 ม.

การสังเกตสภาพอากาศปัจจุบัน

รายงานได้ทำขึ้นเมื่อ 1 ชั่วโมงและ 11 นาทีที่แล้ว ณ เวลา 10:00 UTC
ลม 16 นอตจากตะวันออก/ตะวันออกเฉียงเหนือ
อุณหภูมิ 26°C
ความชื้น 28%
ความกดอากาศ 1022 hPa
ทัศนวิสัย: 6000 ม.

METAR: HECA 241000Z 07016KT 6000 NSC 26/06 Q1022 NOSIG

เวลา: 13:11 (11:11 UTC)

การพยากรณ์

รายงานได้ทำขึ้นเมื่อ 4 ชั่วโมงและ 21 นาทีที่แล้ว ณ เวลา 06:50 UTC
การพยากรณ์มีผลตั้งแต่วันที่ 24 ณ เวลา 07 UTC จนถึงวันที่ 25 ณ เวลา 12 UTC
ลม 15 นอตจากตะวันออกเฉียงเหนือ
ทัศนวิสัย 10 กม. หรือมากกว่า
ไม่มีเมฆต่ำกว่า 1,500 ม. และไม่มีเมฆคิวมูโลนิมบัส
ความน่าจะเป็น 30%
ตั้งแต่วันที่ 24 ณ เวลา 08 UTC จนถึงวันที่ 24 ณ เวลา 16 UTC
ทัศนวิสัย: 4000 ม.
ทราย

TAF: HECA 240650Z 2407/2512 05015KT CAVOK PROB30 2408/2416 4000 SA NSC

สังเกตการณ์สภาพอากาศและพยากรณ์อากาศของสนามบินมากกว่า 4000 แห่ง (รายงาน METAR และ TAF).

สถานีที่ดูได้จะแสดงไว้ด้วยจุดสีเหลืองและสีแดงบนแผนที่.

เลื่อนเมาส์ไปเหนือจุดเพื่อดูชื่อสถานี.

แล้วคลิกเพื่อดูสังเกตการณ์และการพยากรณ์สภาพอากาศ.

ในการเปลี่ยนแผนที่: คลิกที่ปุ่มสีเขียวที่มีกากบาทสีดำเพื่อซูมเข้า; ที่ปุ่มสีเขียวที่มีขีดเพื่อซูมออก; หรือที่ลูกศรสีเขียวเพื่อไปยังแผนที่ที่อยู่ติดกัน.


METAR-TAF: